Time;durP1;ratioP1;P1;durP2;ratioP2;P2;SDS_P1;SDS_P2;PMS_P1;PMS_P2;Temp;Humidity;BMP_temperature;BMP_pressure;BME280_temperature;BME280_humidity;BME280_pressure;Samples;Min_cycle;Max_cycle;Signal;HPM_P1;HPM_P2
2023/06/28 00:00:33;;;;;;;13.52;9.50;;;;;;;25.95;41.24;98690.31;5070395;28;20049;-65
2023/06/28 00:03:00;;;;;;;12.85;9.52;;;;;;;25.94;41.11;98696.06;5037335;28;20075;-65
2023/06/28 00:05:27;;;;;;;20.63;10.57;;;;;;;25.96;41.04;98694.66;5037683;28;20383;-65
2023/06/28 00:07:53;;;;;;;14.52;9.70;;;;;;;25.97;41.44;98690.06;5069516;28;20126;-66
2023/06/28 00:10:18;;;;;;;17.15;9.65;;;;;;;25.89;41.22;98679.75;5069281;28;20052;-65
2023/06/28 00:12:45;;;;;;;14.95;10.15;;;;;;;25.96;41.24;98691.94;5088551;28;20475;-66
2023/06/28 00:15:12;;;;;;;19.60;9.93;;;;;;;25.93;41.56;98686.25;5071995;28;20040;-66
2023/06/28 00:17:38;;;;;;;14.05;9.55;;;;;;;25.69;41.77;98694.25;5088509;28;20058;-65
2023/06/28 00:20:06;;;;;;;14.20;9.68;;;;;;;25.91;41.50;98694.69;5039717;28;20122;-66
2023/06/28 00:22:33;;;;;;;17.08;10.77;;;;;;;25.92;41.60;98699.06;5073144;28;20040;-66
2023/06/28 00:25:01;;;;;;;16.10;9.60;;;;;;;25.99;41.76;98698.75;5073032;28;20048;-65
2023/06/28 00:27:27;;;;;;;16.60;10.20;;;;;;;25.97;41.72;98693.56;5056992;28;20067;-65
2023/06/28 00:29:56;;;;;;;15.20;9.73;;;;;;;26.17;41.69;98703.56;5073908;28;20063;-65
2023/06/28 00:32:23;;;;;;;18.80;10.63;;;;;;;25.98;41.75;98689.78;5040269;28;20055;-67
2023/06/28 00:34:49;;;;;;;16.63;10.48;;;;;;;25.81;41.75;98688.47;5073937;28;20056;-66
2023/06/28 00:37:15;;;;;;;16.20;10.82;;;;;;;25.85;41.79;98695.81;5090359;28;20505;-65
2023/06/28 00:39:41;;;;;;;14.45;10.80;;;;;;;25.88;41.52;98687.09;5073614;28;20139;-64
2023/06/28 00:42:10;;;;;;;23.85;12.05;;;;;;;25.82;41.59;98674.59;5040084;28;20367;-67
2023/06/28 00:44:37;;;;;;;19.80;11.02;;;;;;;25.94;41.69;98691.41;5073384;28;20032;-65
2023/06/28 00:47:06;;;;;;;15.88;11.70;;;;;;;25.65;41.66;98682.28;5090185;28;20083;-65
2023/06/28 00:49:35;;;;;;;21.65;11.40;;;;;;;25.75;42.27;98687.69;5090212;28;20424;-65
2023/06/28 00:52:01;;;;;;;16.23;11.10;;;;;;;25.69;41.95;98688.81;5073305;28;20036;-65
2023/06/28 00:54:27;;;;;;;18.92;11.82;;;;;;;25.44;42.14;98679.91;5089832;28;20044;-66
2023/06/28 00:56:54;;;;;;;16.33;10.30;;;;;;;25.51;42.37;98678.53;5073660;28;20135;-67
2023/06/28 00:59:20;;;;;;;19.98;11.05;;;;;;;25.21;42.97;98683.22;5060216;28;20369;-65
2023/06/28 01:01:49;;;;;;;23.67;11.10;;;;;;;25.31;42.99;98686.72;5078267;28;20108;-65
2023/06/28 01:04:16;;;;;;;21.88;10.68;;;;;;;25.34;42.81;98683.47;5096141;28;20185;-65
2023/06/28 01:06:51;;;;;;;32.53;11.00;;;;;;;25.23;43.67;98687.31;5061676;28;20064;-65
2023/06/28 01:09:22;;;;;;;21.65;11.07;;;;;;;25.41;43.35;98686.72;5077676;28;20044;-65
2023/06/28 01:11:52;;;;;;;37.08;12.23;;;;;;;25.25;44.30;98676.16;5076496;28;20122;-66
2023/06/28 01:14:19;;;;;;;19.42;10.65;;;;;;;25.15;43.59;98682.41;5076673;28;20506;-65
2023/06/28 01:16:49;;;;;;;22.38;10.70;;;;;;;25.25;43.37;98685.09;5076645;28;20071;-65
2023/06/28 01:19:16;;;;;;;16.73;10.27;;;;;;;25.02;43.75;98674.03;5076590;28;20040;-66
2023/06/28 01:21:45;;;;;;;19.08;10.18;;;;;;;25.18;43.98;98687.31;5076537;28;20036;-66
2023/06/28 01:24:12;;;;;;;25.90;10.77;;;;;;;24.69;45.64;98688.97;5093197;28;20463;-66
2023/06/28 01:26:39;;;;;;;23.50;10.75;;;;;;;24.88;44.95;98683.81;5076569;28;20047;-66
2023/06/28 01:29:06;;;;;;;17.27;10.88;;;;;;;25.10;44.40;98685.13;5059742;28;20040;-66
2023/06/28 01:31:34;;;;;;;22.73;11.10;;;;;;;24.92;44.09;98670.22;5093345;28;20131;-65
2023/06/28 01:34:01;;;;;;;18.38;11.00;;;;;;;24.70;45.12;98680.56;5076663;28;20142;-65
2023/06/28 01:36:28;;;;;;;17.15;11.13;;;;;;;24.64;45.67;98683.50;5093300;28;20135;-64
2023/06/28 01:38:54;;;;;;;17.13;10.43;;;;;;;24.75;45.46;98679.75;5093435;28;20498;-65
2023/06/28 01:41:21;;;;;;;21.05;10.50;;;;;;;24.72;45.52;98686.53;5059945;28;20135;-65
2023/06/28 01:43:47;;;;;;;19.85;11.18;;;;;;;24.87;45.10;98685.72;5076207;28;20470;-65
2023/06/28 01:46:12;;;;;;;24.15;11.32;;;;;;;25.01;44.63;98691.41;5076192;28;20082;-65
2023/06/28 01:48:38;;;;;;;22.15;11.25;;;;;;;25.04;44.29;98686.22;5059385;28;20052;-65
2023/06/28 01:51:04;;;;;;;20.58;10.77;;;;;;;25.21;44.28;98681.31;5075835;28;20420;-65
2023/06/28 01:53:30;;;;;;;19.88;10.43;;;;;;;25.25;44.04;98687.03;5075870;28;20055;-65
2023/06/28 01:55:56;;;;;;;19.20;10.98;;;;;;;25.24;43.73;98678.03;5076082;28;20044;-65
2023/06/28 01:58:22;;;;;;;17.70;11.25;;;;;;;25.34;43.82;98685.41;5076797;28;20067;-65
2023/06/28 02:00:48;;;;;;;13.80;10.20;;;;;;;25.10;44.28;98690.56;5059704;28;20040;-65
2023/06/28 02:03:13;;;;;;;14.40;10.70;;;;;;;24.82;44.59;98681.09;5075514;28;20116;-65
2023/06/28 02:05:40;;;;;;;15.88;10.30;;;;;;;25.06;44.19;98686.78;5075516;28;20373;-67
2023/06/28 02:08:06;;;;;;;14.10;10.30;;;;;;;25.29;43.58;98693.53;5075606;28;20468;-66
2023/06/28 02:10:33;;;;;;;15.65;10.32;;;;;;;25.49;43.71;98694.31;5075040;28;20043;-65
2023/06/28 02:12:59;;;;;;;16.95;10.00;;;;;;;25.39;43.33;98690.81;5091989;28;20048;-66
2023/06/28 02:15:29;;;;;;;15.10;10.03;;;;;;;25.11;43.57;98686.75;5092995;28;20047;-65
2023/06/28 02:17:58;;;;;;;13.60;9.80;;;;;;;25.23;43.25;98681.88;5076899;28;20040;-65
2023/06/28 02:20:24;;;;;;;13.77;9.95;;;;;;;25.46;42.96;98694.06;5092541;28;20075;-65
2023/06/28 02:22:50;;;;;;;23.40;11.05;;;;;;;25.31;43.16;98683.19;5092096;28;20506;-66
2023/06/28 02:25:16;;;;;;;13.95;9.68;;;;;;;25.36;42.99;98688.63;5042119;28;20096;-65
2023/06/28 02:27:42;;;;;;;16.05;10.32;;;;;;;25.42;42.85;98691.06;5091985;28;20479;-65
2023/06/28 02:30:08;;;;;;;15.85;10.65;;;;;;;25.56;43.21;98694.84;5092142;28;20042;-65
2023/06/28 02:32:34;;;;;;;15.30;9.88;;;;;;;25.46;43.01;98691.34;5058312;28;20481;-65
2023/06/28 02:35:00;;;;;;;13.85;9.38;;;;;;;25.44;42.73;98683.47;5091737;28;20039;-66
2023/06/28 02:37:26;;;;;;;17.95;9.70;;;;;;;25.46;42.61;98699.50;5058587;28;20348;-65
2023/06/28 02:39:52;;;;;;;15.38;9.90;;;;;;;25.55;42.57;98701.38;5092875;28;20130;-65
2023/06/28 02:42:17;;;;;;;13.88;9.30;;;;;;;25.58;42.60;98706.25;5092760;28;20044;-66
2023/06/28 02:44:44;;;;;;;12.15;9.75;;;;;;;25.39;42.45;98677.22;5091668;28;20479;-65
2023/06/28 02:47:10;;;;;;;17.13;10.27;;;;;;;25.48;42.56;98705.47;5091347;28;20092;-65
2023/06/28 02:49:36;;;;;;;13.20;9.30;;;;;;;25.59;42.53;98705.16;5091450;28;20040;-65
2023/06/28 02:52:02;;;;;;;18.58;9.65;;;;;;;25.59;42.24;98693.47;5074490;28;20040;-65
2023/06/28 02:54:27;;;;;;;18.35;9.95;;;;;;;25.57;42.11;98698.38;5091461;28;20040;-64
2023/06/28 02:56:53;;;;;;;17.40;9.35;;;;;;;25.67;42.11;98701.88;5057833;28;20085;-65
2023/06/28 02:59:19;;;;;;;16.88;9.57;;;;;;;25.76;41.88;98699.38;5091198;28;20502;-65
2023/06/28 03:01:47;;;;;;;17.00;9.85;;;;;;;25.53;42.19;98698.09;5074912;28;20047;-66
2023/06/28 03:04:14;;;;;;;16.20;9.45;;;;;;;25.53;42.22;98683.69;5058020;28;20044;-65
2023/06/28 03:06:41;;;;;;;14.82;9.40;;;;;;;26.17;41.45;98698.13;5074416;28;20101;-66
2023/06/28 03:09:07;;;;;;;15.48;10.00;;;;;;;26.23;40.76;98700.53;5074501;28;20510;-67
2023/06/28 03:11:32;;;;;;;10.57;9.05;;;;;;;26.49;39.54;98682.13;5074299;28;20101;-66
2023/06/28 03:14:01;;;;;;;14.30;8.73;;;;;;;26.48;39.01;98708.53;5057728;28;20039;-68
2023/06/28 03:16:29;;;;;;;15.43;8.98;;;;;;;26.55;38.84;98712.84;5091514;28;20039;-66
2023/06/28 03:18:55;;;;;;;12.95;8.88;;;;;;;26.64;38.78;98713.91;5057473;28;20050;-68
2023/06/28 03:21:21;;;;;;;13.70;9.00;;;;;;;26.41;39.44;98707.22;5073888;28;20112;-69
2023/06/28 03:23:47;;;;;;;15.45;9.07;;;;;;;26.39;39.07;98707.50;5074142;28;20040;-69
2023/06/28 03:26:14;;;;;;;14.63;8.05;;;;;;;26.75;38.89;98712.72;5090727;28;20097;-71
2023/06/28 03:28:40;;;;;;;10.43;8.13;;;;;;;26.69;38.66;98703.78;5074052;28;20082;-72
2023/06/28 03:31:07;;;;;;;13.05;8.65;;;;;;;26.79;38.53;98711.03;5073992;28;20044;-70
2023/06/28 03:33:32;;;;;;;13.15;8.73;;;;;;;26.69;38.21;98697.53;5074062;28;20093;-72
2023/06/28 03:35:59;;;;;;;12.85;8.77;;;;;;;26.98;37.90;98706.53;5074338;28;20039;-69
2023/06/28 03:38:24;;;;;;;12.20;8.68;;;;;;;27.02;37.96;98713.03;5087605;28;20127;-72
2023/06/28 03:40:50;;;;;;;10.93;8.32;;;;;;;27.05;37.73;98710.56;5047075;28;20031;-70
2023/06/28 03:43:19;;;;;;;11.75;7.70;;;;;;;26.92;37.97;98707.69;5064198;28;20039;-69
2023/06/28 03:45:50;;;;;;;10.85;8.32;;;;;;;26.97;37.98;98708.44;5055203;28;20052;-69
2023/06/28 03:48:18;;;;;;;15.98;8.35;;;;;;;27.16;37.40;98714.00;5039192;28;20051;-68
2023/06/28 03:50:45;;;;;;;9.73;7.85;;;;;;;26.97;37.25;98704.91;5078818;28;20044;-67
2023/06/28 03:53:11;;;;;;;12.35;8.40;;;;;;;26.97;37.63;98713.09;5082367;28;20094;-70
2023/06/28 03:55:37;;;;;;;11.85;8.25;;;;;;;27.01;37.50;98705.97;5065201;28;20549;-68
2023/06/28 03:58:03;;;;;;;11.23;7.97;;;;;;;27.04;37.66;98708.94;5045482;28;20043;-66
2023/06/28 04:00:29;;;;;;;11.25;8.25;;;;;;;27.13;37.38;98715.38;5079771;28;20377;-68
2023/06/28 04:02:55;;;;;;;9.98;7.97;;;;;;;27.23;37.17;98709.03;5046247;28;20059;-68
2023/06/28 04:05:20;;;;;;;13.95;9.00;;;;;;;27.29;36.83;98710.63;5042537;28;20578;-67
2023/06/28 04:07:54;;;;;;;10.65;8.85;;;;;;;27.43;36.68;98715.09;5051932;28;20094;-67
2023/06/28 04:10:21;;;;;;;10.23;8.25;;;;;;;27.55;36.35;98715.53;5066711;28;20044;-67
2023/06/28 04:12:47;;;;;;;12.40;8.73;;;;;;;27.64;36.14;98705.59;5067393;28;20044;-68
2023/06/28 04:15:12;;;;;;;20.33;8.70;;;;;;;27.58;35.80;98706.78;5068612;28;20044;-68
2023/06/28 04:17:38;;;;;;;16.63;9.02;;;;;;;27.57;36.01;98715.25;5049450;28;20040;-68
2023/06/28 04:20:06;;;;;;;18.02;8.88;;;;;;;27.82;35.78;98706.75;5068554;28;20044;-68
2023/06/28 04:22:32;;;;;;;11.18;8.60;;;;;;;27.70;35.86;98707.16;5068984;28;20052;-68
2023/06/28 04:24:58;;;;;;;11.55;8.40;;;;;;;27.77;35.76;98701.34;5069103;28;20044;-67
2023/06/28 04:27:24;;;;;;;13.05;7.90;;;;;;;27.65;35.85;98703.66;5070447;28;20040;-67
2023/06/28 04:29:50;;;;;;;12.45;8.02;;;;;;;27.89;35.48;98699.06;5070248;28;20052;-67
2023/06/28 04:32:26;;;;;;;15.13;7.82;;;;;;;28.44;35.28;98709.19;5054414;28;20040;-67
2023/06/28 04:34:53;;;;;;;10.25;7.25;;;;;;;28.38;34.58;98694.00;5073384;28;20499;-67
2023/06/28 04:37:20;;;;;;;13.02;7.10;;;;;;;28.57;34.48;98691.28;5040414;28;20048;-68
2023/06/28 04:39:46;;;;;;;10.88;7.28;;;;;;;28.47;34.48;98692.25;5040520;28;20131;-68
2023/06/28 04:42:15;;;;;;;11.27;7.25;;;;;;;28.69;33.71;98680.69;5040468;28;20122;-67
2023/06/28 04:44:43;;;;;;;10.93;7.05;;;;;;;28.99;33.49;98680.16;5041139;28;20041;-67
2023/06/28 04:47:10;;;;;;;15.55;7.20;;;;;;;28.74;33.19;98662.28;5057412;28;20456;-68
2023/06/28 04:49:35;;;;;;;8.88;6.95;;;;;;;29.11;32.71;98678.63;5074241;28;20052;-67
2023/06/28 04:52:02;;;;;;;13.65;7.18;;;;;;;29.47;32.43;98676.84;5057874;28;20522;-68
2023/06/28 04:54:28;;;;;;;8.13;7.05;;;;;;;29.35;32.14;98675.72;5075746;28;20045;-68
2023/06/28 04:56:54;;;;;;;10.05;6.80;;;;;;;29.47;32.11;98674.09;5057861;28;20037;-68
2023/06/28 04:59:19;;;;;;;8.02;6.70;;;;;;;29.52;31.84;98673.97;5073627;28;20181;-67
2023/06/28 05:01:45;;;;;;;11.30;6.65;;;;;;;29.70;31.08;98675.03;5073881;28;20468;-68
2023/06/28 05:04:11;;;;;;;10.30;6.47;;;;;;;29.87;30.67;98677.16;5057282;28;20048;-68
2023/06/28 05:06:37;;;;;;;11.25;5.75;;;;;;;29.81;30.56;98672.91;5073757;28;20559;-70
2023/06/28 05:09:03;;;;;;;13.75;6.15;;;;;;;29.92;30.41;98683.34;5057354;28;20048;-68
2023/06/28 05:11:29;;;;;;;14.43;6.07;;;;;;;29.84;30.81;98672.28;5073271;28;20380;-67
2023/06/28 05:13:55;;;;;;;12.00;6.07;;;;;;;30.01;30.51;98684.25;5056490;28;20172;-68
2023/06/28 05:16:21;;;;;;;12.85;5.97;;;;;;;30.24;30.42;98685.94;5040286;28;20037;-67
2023/06/28 05:18:47;;;;;;;13.70;6.13;;;;;;;30.10;30.24;98678.84;5056977;28;20036;-67
2023/06/28 05:21:12;;;;;;;18.55;5.70;;;;;;;30.07;30.09;98668.50;5040278;28;20044;-67
2023/06/28 05:23:38;;;;;;;14.68;5.85;;;;;;;30.17;29.94;98679.25;5040090;28;20049;-69
2023/06/28 05:26:04;;;;;;;12.40;6.05;;;;;;;30.25;30.10;98673.03;5057149;28;20379;-68
2023/06/28 05:28:30;;;;;;;10.70;6.30;;;;;;;30.43;30.09;98681.09;5039896;28;20565;-68
2023/06/28 05:30:55;;;;;;;10.00;6.05;;;;;;;30.14;30.25;98668.91;5090165;28;20039;-67
2023/06/28 05:33:21;;;;;;;14.27;5.90;;;;;;;30.25;30.00;98656.59;5056458;28;20040;-68
2023/06/28 05:35:47;;;;;;;12.25;5.93;;;;;;;30.79;29.85;98670.13;5056239;28;20330;-67
2023/06/28 05:38:13;;;;;;;11.27;5.72;;;;;;;30.95;29.23;98674.09;5073139;28;20063;-67
2023/06/28 05:40:39;;;;;;;8.40;5.65;;;;;;;30.44;29.61;98668.22;5073734;28;20492;-68
2023/06/28 05:43:05;;;;;;;13.27;5.70;;;;;;;30.81;29.71;98673.38;5056650;28;20093;-68
2023/06/28 05:45:30;;;;;;;13.27;5.88;;;;;;;31.14;29.03;98666.44;5072404;28;20131;-68
2023/06/28 05:47:59;;;;;;;11.50;6.20;;;;;;;30.67;29.40;98678.88;5039395;28;20040;-68
2023/06/28 05:50:25;;;;;;;12.65;6.78;;;;;;;30.73;29.36;98674.06;5056401;28;20362;-68
2023/06/28 05:52:51;;;;;;;10.15;6.32;;;;;;;30.72;28.82;98673.25;5039351;28;20139;-68
2023/06/28 05:55:17;;;;;;;8.65;6.32;;;;;;;31.06;29.18;98669.97;5072084;28;20132;-68
2023/06/28 05:57:44;;;;;;;10.85;6.60;;;;;;;31.14;29.14;98658.22;5056154;28;20492;-68
2023/06/28 06:00:11;;;;;;;8.63;5.82;;;;;;;31.31;28.45;98663.03;5072469;28;20037;-68
2023/06/28 06:02:37;;;;;;;9.10;5.78;;;;;;;31.59;27.37;98676.22;5039810;28;20110;-68
2023/06/28 06:05:03;;;;;;;9.90;5.93;;;;;;;31.34;27.88;98657.69;5058037;28;20052;-68
2023/06/28 06:07:34;;;;;;;9.05;5.75;;;;;;;31.17;28.03;98668.56;5056232;28;20095;-67
2023/06/28 06:10:01;;;;;;;11.05;6.70;;;;;;;30.88;28.13;98665.50;5073963;28;20483;-68
2023/06/28 06:12:29;;;;;;;8.98;6.25;;;;;;;30.81;28.41;98662.41;5056549;28;20507;-67
2023/06/28 06:14:57;;;;;;;7.82;5.78;;;;;;;30.33;28.22;98670.38;5072226;28;20511;-67
2023/06/28 06:17:23;;;;;;;8.95;5.72;;;;;;;30.35;29.09;98646.25;5088892;28;20437;-67
2023/06/28 06:19:49;;;;;;;17.00;6.03;;;;;;;30.95;28.41;98658.44;5072408;28;20403;-68
2023/06/28 06:22:15;;;;;;;6.22;5.30;;;;;;;31.42;27.62;98669.84;5038876;28;20051;-67
2023/06/28 06:24:41;;;;;;;7.78;5.80;;;;;;;30.76;28.24;98657.03;5055622;28;20480;-67
2023/06/28 06:27:08;;;;;;;8.02;5.72;;;;;;;30.74;28.67;98659.25;5072305;28;20056;-67
2023/06/28 06:29:33;;;;;;;10.73;5.65;;;;;;;31.05;28.30;98666.41;5022570;28;20498;-67
2023/06/28 06:31:59;;;;;;;7.68;5.60;;;;;;;31.26;28.04;98666.66;5055442;28;20094;-67
2023/06/28 06:34:25;;;;;;;10.32;5.93;;;;;;;31.92;27.28;98666.47;5055559;28;20507;-67
2023/06/28 06:36:51;;;;;;;11.75;6.93;;;;;;;32.05;27.06;98667.47;5022477;28;20189;-67
2023/06/28 06:39:17;;;;;;;8.65;6.00;;;;;;;32.55;26.20;98665.91;5055498;28;20501;-67
2023/06/28 06:41:43;;;;;;;13.40;6.05;;;;;;;33.06;25.87;98665.06;5056060;28;20684;-68
2023/06/28 06:44:11;;;;;;;13.88;6.40;;;;;;;33.38;25.38;98654.31;5037834;28;20483;-69
2023/06/28 06:46:37;;;;;;;14.77;6.10;;;;;;;33.97;24.93;98652.38;5056086;28;20044;-68
2023/06/28 06:49:03;;;;;;;13.52;6.20;;;;;;;34.47;24.37;98644.06;5057601;28;20044;-67
2023/06/28 06:51:29;;;;;;;9.18;5.10;;;;;;;34.88;23.72;98653.13;5041109;28;20388;-67
2023/06/28 06:53:54;;;;;;;10.77;4.75;;;;;;;35.28;23.44;98651.38;5057176;28;20479;-67
2023/06/28 06:56:24;;;;;;;9.90;5.20;;;;;;;34.78;23.08;98656.25;5056178;28;20112;-66
2023/06/28 06:58:50;;;;;;;10.57;5.07;;;;;;;34.78;23.34;98653.50;5092078;28;20181;-67
2023/06/28 07:01:16;;;;;;;13.88;5.10;;;;;;;34.47;23.70;98646.84;5073939;28;20127;-67
2023/06/28 07:03:42;;;;;;;6.47;4.38;;;;;;;33.53;23.90;98634.47;5057701;28;20077;-66
2023/06/28 07:44:37;;;;;;;7.72;4.38;;;;;;;39.60;17.75;98603.44;5068729;28;20194;-67
2023/06/28 07:47:03;;;;;;;6.70;4.50;;;;;;;40.42;16.97;98606.22;5046542;28;20143;-68
2023/06/28 07:49:29;;;;;;;9.65;4.63;;;;;;;41.44;16.14;98603.34;5052281;28;20041;-67
2023/06/28 07:51:55;;;;;;;6.28;4.63;;;;;;;42.64;14.70;98599.31;5052290;28;20051;-67
2023/06/28 07:54:20;;;;;;;5.95;4.15;;;;;;;43.91;13.54;98596.66;5052517;28;20161;-68
2023/06/28 07:56:46;;;;;;;5.03;4.43;;;;;;;44.64;12.81;98592.84;5036207;28;20036;-67
2023/06/28 07:59:13;;;;;;;3.95;3.45;;;;;;;45.57;12.22;98591.78;5069097;28;20097;-67
2023/06/28 08:01:39;;;;;;;6.18;4.05;;;;;;;46.10;11.77;98592.06;5036311;28;20131;-68
2023/06/28 08:04:05;;;;;;;5.53;3.92;;;;;;;46.13;11.57;98592.03;5036392;28;20507;-68
2023/06/28 08:06:31;;;;;;;8.63;4.97;;;;;;;45.08;12.36;98589.38;5053431;28;20361;-67
2023/06/28 08:08:57;;;;;;;7.25;4.32;;;;;;;44.25;12.78;98589.34;5076030;28;20049;-68
2023/06/28 08:11:23;;;;;;;6.75;4.28;;;;;;;43.06;13.24;98577.06;5075988;28;20066;-66
2023/06/28 08:13:50;;;;;;;5.38;4.28;;;;;;;42.30;14.03;98578.44;5059891;28;20471;-67
2023/06/28 08:16:17;;;;;;;7.45;4.30;;;;;;;40.47;15.51;98575.28;5092995;28;20134;-67
2023/06/28 08:18:43;;;;;;;4.35;3.90;;;;;;;39.29;16.46;98573.16;5042803;28;20543;-67
2023/06/28 08:21:08;;;;;;;4.55;3.85;;;;;;;37.37;18.25;98560.41;5075525;28;20044;-67
2023/06/28 08:23:34;;;;;;;5.97;4.20;;;;;;;36.29;19.57;98561.03;5075657;28;20041;-66
2023/06/28 08:26:01;;;;;;;6.65;4.13;;;;;;;36.21;19.46;98560.03;5058937;28;20055;-67
2023/06/28 08:28:27;;;;;;;9.95;4.10;;;;;;;35.76;19.64;98551.13;5076086;28;20182;-68
2023/06/28 08:30:53;;;;;;;10.05;4.45;;;;;;;35.31;20.02;98570.59;5059213;28;20127;-67
2023/06/28 08:33:19;;;;;;;9.02;4.22;;;;;;;35.04;20.77;98565.78;5058758;28;20040;-67
2023/06/28 08:35:45;;;;;;;6.60;4.30;;;;;;;33.75;22.34;98562.53;5026280;28;20040;-67
2023/06/28 08:38:11;;;;;;;8.30;4.88;;;;;;;33.45;22.93;98554.66;5092631;28;20051;-66
2023/06/28 08:40:37;;;;;;;7.90;4.50;;;;;;;33.28;22.65;98555.53;5059263;28;20052;-67
2023/06/28 08:43:04;;;;;;;6.35;4.03;;;;;;;33.82;22.39;98560.06;5075664;28;20052;-67
2023/06/28 08:45:33;;;;;;;7.07;4.30;;;;;;;34.01;22.29;98560.41;5059121;28;20036;-67
2023/06/28 08:48:01;;;;;;;;;;;;;;;34.27;22.49;98557.47;5059748;28;20036;-66
2023/06/28 08:50:28;;;;;;;5.07;4.30;;;;;;;33.80;22.63;98548.56;5059380;28;19928;-66
2023/06/28 08:52:56;;;;;;;6.97;4.38;;;;;;;34.26;22.37;98555.81;5041573;28;20420;-66
2023/06/28 08:55:23;;;;;;;7.53;4.07;;;;;;;34.52;22.01;98550.09;5043209;28;20052;-67
2023/06/28 08:57:50;;;;;;;7.88;4.55;;;;;;;34.47;21.98;98561.34;5060401;28;20040;-67
2023/06/28 09:00:16;;;;;;;11.30;4.57;;;;;;;33.79;22.08;98543.41;5075633;28;20055;-69
2023/06/28 09:02:43;;;;;;;13.05;5.00;;;;;;;34.50;21.72;98553.22;5059117;28;20052;-67
2023/06/28 09:05:13;;;;;;;8.60;5.05;;;;;;;34.15;22.07;98541.66;5059183;28;20510;-67
2023/06/28 09:07:40;;;;;;;;;;;;;;;35.02;21.13;98557.03;5075934;28;20052;-67
2023/06/28 09:10:08;;;;;;;7.30;4.60;;;;;;;35.23;20.81;98560.47;5058645;28;19916;-67
2023/06/28 09:12:37;;;;;;;5.97;3.88;;;;;;;35.58;20.36;98552.56;5043793;28;20051;-67
2023/06/28 09:15:03;;;;;;;6.50;4.07;;;;;;;34.46;21.46;98548.72;5059920;28;20071;-66
2023/06/28 09:17:30;;;;;;;9.85;4.50;;;;;;;33.90;21.38;98573.00;5042574;28;20507;-67
2023/06/28 09:20:13;;;;;;;9.35;3.78;;;;;;;33.81;22.02;98552.16;5038580;28;20041;-68
2023/06/28 09:22:40;;;;;;;6.25;4.10;;;;;;;34.02;21.80;98547.47;5072315;28;20047;-66
2023/06/28 09:25:06;;;;;;;8.52;4.57;;;;;;;34.30;22.02;98551.25;5088839;28;20228;-67
2023/06/28 09:27:32;;;;;;;12.75;4.20;;;;;;;34.69;21.31;98552.69;5072273;28;20366;-67
2023/06/28 09:30:24;;;;;;;5.93;4.10;;;;;;;35.24;20.74;98553.00;5022238;28;20049;-66
2023/06/28 09:32:52;;;;;;;7.50;3.80;;;;;;;35.67;20.11;98536.66;5001736;28;20505;-66
2023/06/28 09:35:18;;;;;;;10.15;4.05;;;;;;;35.64;20.19;98520.78;5017654;28;20114;-66
2023/06/28 09:38:07;;;;;;;6.43;4.30;;;;;;;36.14;19.95;98536.88;5024998;28;20385;-66
2023/06/28 09:40:34;;;;;;;5.30;3.80;;;;;;;35.96;20.15;98530.03;5020454;28;20048;-68
2023/06/28 09:43:00;;;;;;;7.22;4.18;;;;;;;36.21;19.92;98542.63;5003983;28;20190;-65
2023/06/28 09:45:28;;;;;;;7.75;4.07;;;;;;;35.33;20.10;98529.66;5002772;28;20064;-67
2023/06/28 09:47:58;;;;;;;4.53;4.10;;;;;;;35.36;20.51;98534.50;5036487;28;20114;-66
2023/06/28 09:50:41;;;;;;;4.82;4.22;;;;;;;34.92;20.60;98531.81;5037201;28;20064;-66
2023/06/28 09:53:12;;;;;;;6.75;4.35;;;;;;;34.67;21.00;98521.88;5053828;28;20117;-67
2023/06/28 09:55:42;;;;;;;6.07;3.97;;;;;;;34.12;22.23;98511.22;5037626;28;20071;-66
2023/06/28 09:58:11;;;;;;;5.50;4.07;;;;;;;34.63;21.74;98509.91;5037378;28;20384;-66
2023/06/28 10:00:38;;;;;;;5.43;4.23;;;;;;;34.75;21.74;98512.69;5038147;28;20053;-66
2023/06/28 10:03:08;;;;;;;8.30;4.40;;;;;;;34.24;22.33;98519.53;5054822;28;20055;-66
2023/06/28 10:05:36;;;;;;;4.93;4.43;;;;;;;33.97;22.73;98520.91;5071319;28;20368;-66
2023/06/28 10:08:11;;;;;;;6.25;4.38;;;;;;;33.98;22.85;98510.72;5021243;28;20045;-66
2023/06/28 10:10:39;;;;;;;6.38;4.20;;;;;;;33.71;23.11;98508.47;5038408;28;20125;-66
2023/06/28 10:13:31;;;;;;;6.38;4.68;;;;;;;33.61;23.46;98509.66;5038190;28;20491;-67
2023/06/28 10:16:14;;;;;;;8.88;4.97;;;;;;;33.81;23.57;98500.59;5037339;28;20439;-66
2023/06/28 10:18:43;;;;;;;10.05;4.45;;;;;;;33.42;23.53;98490.06;5022391;28;20135;-67
2023/06/28 10:21:09;;;;;;;12.27;4.55;;;;;;;33.51;23.51;98495.47;5071492;28;20051;-66
2023/06/28 10:23:39;;;;;;;6.78;4.13;;;;;;;33.18;23.65;98502.81;5038202;28;20056;-67
2023/06/28 10:26:07;;;;;;;5.65;4.38;;;;;;;32.51;24.71;98498.06;5071456;28;20045;-67
2023/06/28 10:28:34;;;;;;;8.90;4.65;;;;;;;32.87;24.22;98494.88;5055971;28;20398;-66
2023/06/28 10:31:05;;;;;;;7.00;4.43;;;;;;;33.20;23.95;98497.78;5054655;28;20040;-67
2023/06/28 10:33:32;;;;;;;5.80;4.53;;;;;;;32.88;24.50;98477.22;5047718;28;20033;-67
2023/06/28 10:36:00;;;;;;;6.63;4.60;;;;;;;32.64;24.78;98490.72;5053297;28;20041;-66
2023/06/28 10:38:45;;;;;;;9.32;4.72;;;;;;;32.52;25.32;98494.16;5070560;28;20622;-66
2023/06/28 10:41:16;;;;;;;11.65;5.20;;;;;;;32.44;25.48;98489.47;5079543;28;20046;-65
2023/06/28 10:43:42;;;;;;;;;;;;;;;33.09;25.00;98491.03;5057232;28;20489;-66
2023/06/28 10:46:25;;;;;;;15.32;5.18;;;;;;;33.00;25.13;98502.09;5073853;28;20010;-66
2023/06/28 10:48:53;;;;;;;6.93;4.93;;;;;;;32.76;25.74;98490.84;5073874;28;20040;-66
2023/06/28 10:51:23;;;;;;;15.48;5.00;;;;;;;32.78;25.48;98488.56;5090650;28;20040;-65
2023/06/28 10:53:56;;;;;;;7.35;4.68;;;;;;;33.31;24.81;98476.97;5057739;28;20108;-65
2023/06/28 10:56:22;;;;;;;7.95;4.88;;;;;;;34.18;24.03;98479.56;5091083;28;20047;-66
2023/06/28 10:58:54;;;;;;;5.93;4.55;;;;;;;33.99;23.72;98482.00;5090779;28;20036;-65
2023/06/28 11:01:38;;;;;;;5.50;4.60;;;;;;;34.44;23.24;98482.06;5090985;28;20058;-66
2023/06/28 11:04:12;;;;;;;8.70;4.18;;;;;;;34.24;23.19;98472.69;5040950;28;20060;-66
2023/06/28 11:06:39;;;;;;;6.72;4.53;;;;;;;34.30;22.98;98487.03;5057660;28;20130;-66
2023/06/28 11:09:14;;;;;;;6.57;4.57;;;;;;;33.78;23.73;98478.44;5090941;28;20040;-66
2023/06/28 11:11:46;;;;;;;7.82;4.70;;;;;;;33.81;23.50;98491.53;5089848;28;20073;-65
2023/06/28 11:14:32;;;;;;;8.50;5.32;;;;;;;33.30;24.75;98484.44;5074065;28;20052;-66
2023/06/28 11:17:06;;;;;;;7.95;4.82;;;;;;;32.55;25.74;98484.47;5090263;28;20126;-65
2023/06/28 11:19:32;;;;;;;6.88;4.97;;;;;;;32.05;26.23;98473.22;5090496;28;20060;-66
2023/06/28 11:22:02;;;;;;;9.38;4.85;;;;;;;32.92;25.52;98471.88;5072577;28;20075;-66
2023/06/28 11:24:37;;;;;;;6.25;5.00;;;;;;;33.32;25.11;98482.13;5089335;28;20124;-65
2023/06/28 11:27:13;;;;;;;11.25;5.63;;;;;;;33.03;25.16;98467.63;5072452;28;20462;-66
2023/06/28 11:29:53;;;;;;;8.85;5.72;;;;;;;32.81;25.84;98473.34;5055681;28;20139;-65
2023/06/28 11:32:32;;;;;;;8.27;6.30;;;;;;;32.68;25.65;98473.25;5089500;28;20050;-66
2023/06/28 11:34:59;;;;;;;12.20;7.03;;;;;;;32.77;25.75;98475.16;5072859;28;20820;-65
2023/06/28 11:37:26;;;;;;;15.07;6.78;;;;;;;32.71;25.89;98459.97;5073935;28;20060;-66
2023/06/28 11:39:52;;;;;;;16.27;7.05;;;;;;;32.21;26.25;98457.81;5076073;28;20376;-66
2023/06/28 11:42:19;;;;;;;9.95;6.97;;;;;;;32.22;26.58;98467.69;5056485;28;20051;-66
2023/06/28 11:44:47;;;;;;;16.95;7.13;;;;;;;32.44;26.02;98456.50;5039215;28;20047;-65
2023/06/28 11:47:16;;;;;;;9.88;6.80;;;;;;;32.26;26.91;98470.63;5054453;28;20054;-65
2023/06/28 11:49:42;;;;;;;10.57;6.72;;;;;;;32.25;26.57;98455.25;5039073;28;20040;-66
2023/06/28 11:52:09;;;;;;;14.45;6.63;;;;;;;32.31;26.61;98465.75;5056085;28;20048;-65
2023/06/28 11:54:36;;;;;;;10.75;6.57;;;;;;;32.55;26.58;98471.50;5056643;28;20039;-65
2023/06/28 11:57:01;;;;;;;10.15;6.07;;;;;;;32.66;25.98;98475.50;5089690;28;20134;-65
2023/06/28 11:59:29;;;;;;;7.97;5.55;;;;;;;32.25;26.74;98475.28;5073027;28;20142;-65
2023/06/28 12:02:05;;;;;;;10.50;5.90;;;;;;;32.81;26.13;98465.09;5072246;28;20052;-65
2023/06/28 12:04:33;;;;;;;9.93;5.40;;;;;;;33.02;25.70;98480.56;5073578;28;20067;-66
2023/06/28 12:07:07;;;;;;;6.00;4.85;;;;;;;33.10;25.33;98474.19;5090073;28;20404;-65